sensor_id;sensor_type;location;lat;lon;timestamp;pressure;altitude;pressure_sealevel;temperature;humidity
83492;BME280;73661;56.120;12.302;2024-01-06T00:01:41;101379.22;;;-4.84;78.22
83492;BME280;73661;56.120;12.302;2024-01-06T00:04:07;101373.53;;;-4.91;78.27
83492;BME280;73661;56.120;12.302;2024-01-06T00:06:32;101374.41;;;-4.69;77.84
83492;BME280;73661;56.120;12.302;2024-01-06T00:08:58;101380.94;;;-4.95;78.40
83492;BME280;73661;56.120;12.302;2024-01-06T00:11:24;101381.34;;;-5.00;78.57
83492;BME280;73661;56.120;12.302;2024-01-06T00:13:50;101388.31;;;-4.98;78.27
83492;BME280;73661;56.120;12.302;2024-01-06T00:16:19;101396.84;;;-4.97;76.82
83492;BME280;73661;56.120;12.302;2024-01-06T00:18:46;101392.72;;;-5.17;78.17
83492;BME280;73661;56.120;12.302;2024-01-06T00:21:12;101403.09;;;-5.04;78.56
83492;BME280;73661;56.120;12.302;2024-01-06T00:23:39;101394.97;;;-4.78;78.13
83492;BME280;73661;56.120;12.302;2024-01-06T00:26:05;101407.28;;;-4.50;77.63
83492;BME280;73661;56.120;12.302;2024-01-06T00:28:31;101414.53;;;-4.67;77.80
83492;BME280;73661;56.120;12.302;2024-01-06T00:30:57;101412.38;;;-4.94;78.33
83492;BME280;73661;56.120;12.302;2024-01-06T00:33:22;101424.13;;;-5.06;77.71
83492;BME280;73661;56.120;12.302;2024-01-06T00:35:48;101414.31;;;-5.54;78.63
83492;BME280;73661;56.120;12.302;2024-01-06T00:38:14;101419.66;;;-5.71;78.46
83492;BME280;73661;56.120;12.302;2024-01-06T00:40:40;101414.59;;;-5.71;78.42
83492;BME280;73661;56.120;12.302;2024-01-06T00:43:05;101418.69;;;-6.04;78.90
83492;BME280;73661;56.120;12.302;2024-01-06T00:45:31;101425.91;;;-5.88;78.88
83492;BME280;73661;56.120;12.302;2024-01-06T00:47:57;101420.34;;;-6.15;78.83
83492;BME280;73661;56.120;12.302;2024-01-06T00:50:23;101434.22;;;-6.01;78.22
83492;BME280;73661;56.120;12.302;2024-01-06T00:52:49;101425.19;;;-6.57;80.23
83492;BME280;73661;56.120;12.302;2024-01-06T00:55:22;101433.16;;;-6.23;79.14
83492;BME280;73661;56.120;12.302;2024-01-06T00:57:49;101427.78;;;-6.37;79.36
83492;BME280;73661;56.120;12.302;2024-01-06T01:00:15;101430.09;;;-6.79;79.21
83492;BME280;73661;56.120;12.302;2024-01-06T01:02:41;101432.47;;;-6.51;78.35
83492;BME280;73661;56.120;12.302;2024-01-06T01:05:07;101431.31;;;-6.55;80.11
83492;BME280;73661;56.120;12.302;2024-01-06T01:07:33;101423.56;;;-6.56;80.61
83492;BME280;73661;56.120;12.302;2024-01-06T01:09:59;101432.56;;;-6.60;80.43
83492;BME280;73661;56.120;12.302;2024-01-06T01:12:25;101435.41;;;-6.47;80.46
83492;BME280;73661;56.120;12.302;2024-01-06T01:14:52;101422.19;;;-6.53;79.91
83492;BME280;73661;56.120;12.302;2024-01-06T01:17:18;101430.84;;;-6.41;81.34
83492;BME280;73661;56.120;12.302;2024-01-06T01:19:45;101431.81;;;-6.49;81.36
83492;BME280;73661;56.120;12.302;2024-01-06T01:22:10;101437.41;;;-6.53;80.51
83492;BME280;73661;56.120;12.302;2024-01-06T01:24:36;101435.16;;;-6.40;80.90
83492;BME280;73661;56.120;12.302;2024-01-06T01:27:02;101437.13;;;-6.56;80.24
83492;BME280;73661;56.120;12.302;2024-01-06T01:29:28;101450.56;;;-6.67;80.40
83492;BME280;73661;56.120;12.302;2024-01-06T01:31:53;101447.66;;;-6.91;80.41
83492;BME280;73661;56.120;12.302;2024-01-06T01:34:19;101440.06;;;-7.20;81.54
83492;BME280;73661;56.120;12.302;2024-01-06T01:36:45;101458.47;;;-7.12;81.64
83492;BME280;73661;56.120;12.302;2024-01-06T01:39:10;101455.50;;;-7.46;82.35
83492;BME280;73661;56.120;12.302;2024-01-06T01:41:36;101460.97;;;-7.60;83.14
83492;BME280;73661;56.120;12.302;2024-01-06T01:44:02;101455.88;;;-7.22;82.31
83492;BME280;73661;56.120;12.302;2024-01-06T01:46:30;101462.69;;;-6.83;82.02
83492;BME280;73661;56.120;12.302;2024-01-06T01:48:58;101469.25;;;-7.15;82.77
83492;BME280;73661;56.120;12.302;2024-01-06T01:51:28;101462.03;;;-7.10;83.77
83492;BME280;73661;56.120;12.302;2024-01-06T01:53:56;101469.44;;;-7.03;83.51
83492;BME280;73661;56.120;12.302;2024-01-06T01:56:24;101466.81;;;-6.65;82.19
83492;BME280;73661;56.120;12.302;2024-01-06T01:58:50;101471.34;;;-6.81;81.85
83492;BME280;73661;56.120;12.302;2024-01-06T02:01:17;101472.88;;;-6.73;81.68
83492;BME280;73661;56.120;12.302;2024-01-06T02:03:43;101487.41;;;-7.10;81.54
83492;BME280;73661;56.120;12.302;2024-01-06T02:06:09;101476.66;;;-6.78;81.51
83492;BME280;73661;56.120;12.302;2024-01-06T02:08:35;101469.28;;;-6.46;81.11
83492;BME280;73661;56.120;12.302;2024-01-06T02:11:01;101483.59;;;-7.15;81.92
83492;BME280;73661;56.120;12.302;2024-01-06T02:13:34;101474.53;;;-6.74;81.23
83492;BME280;73661;56.120;12.302;2024-01-06T02:16:02;101481.97;;;-6.86;81.85
83492;BME280;73661;56.120;12.302;2024-01-06T02:18:27;101479.31;;;-7.06;82.45
83492;BME280;73661;56.120;12.302;2024-01-06T02:20:58;101484.41;;;-7.06;81.63
83492;BME280;73661;56.120;12.302;2024-01-06T02:23:24;101479.31;;;-6.77;81.05
83492;BME280;73661;56.120;12.302;2024-01-06T02:25:50;101481.94;;;-6.67;80.04
83492;BME280;73661;56.120;12.302;2024-01-06T02:28:15;101497.28;;;-7.13;80.15
83492;BME280;73661;56.120;12.302;2024-01-06T02:30:41;101483.38;;;-7.46;81.10
83492;BME280;73661;56.120;12.302;2024-01-06T02:33:07;101489.25;;;-7.18;80.55
83492;BME280;73661;56.120;12.302;2024-01-06T02:35:32;101500.00;;;-7.58;81.12
83492;BME280;73661;56.120;12.302;2024-01-06T02:37:58;101499.91;;;-7.41;81.29
83492;BME280;73661;56.120;12.302;2024-01-06T02:40:24;101498.63;;;-7.73;80.37
83492;BME280;73661;56.120;12.302;2024-01-06T02:42:49;101504.19;;;-7.58;80.36
83492;BME280;73661;56.120;12.302;2024-01-06T02:45:15;101499.69;;;-7.52;80.31
83492;BME280;73661;56.120;12.302;2024-01-06T02:47:41;101502.47;;;-7.68;79.45
83492;BME280;73661;56.120;12.302;2024-01-06T02:50:07;101504.09;;;-7.96;80.51
83492;BME280;73661;56.120;12.302;2024-01-06T02:52:33;101501.41;;;-7.89;80.73
83492;BME280;73661;56.120;12.302;2024-01-06T02:54:59;101501.22;;;-7.63;79.27
83492;BME280;73661;56.120;12.302;2024-01-06T02:57:26;101502.03;;;-7.26;78.04
83492;BME280;73661;56.120;12.302;2024-01-06T02:59:52;101508.81;;;-7.35;78.05
83492;BME280;73661;56.120;12.302;2024-01-06T03:02:18;101500.16;;;-7.56;77.80
83492;BME280;73661;56.120;12.302;2024-01-06T03:04:44;101509.00;;;-7.61;77.79
83492;BME280;73661;56.120;12.302;2024-01-06T03:07:10;101506.84;;;-7.57;78.26
83492;BME280;73661;56.120;12.302;2024-01-06T03:09:35;101510.03;;;-7.41;77.68
83492;BME280;73661;56.120;12.302;2024-01-06T03:12:01;101515.31;;;-7.48;77.54
83492;BME280;73661;56.120;12.302;2024-01-06T03:14:27;101511.69;;;-7.87;78.44
83492;BME280;73661;56.120;12.302;2024-01-06T03:16:53;101511.00;;;-7.76;79.50
83492;BME280;73661;56.120;12.302;2024-01-06T03:19:19;101515.34;;;-8.11;79.28
83492;BME280;73661;56.120;12.302;2024-01-06T03:21:45;101525.72;;;-8.27;79.83
83492;BME280;73661;56.120;12.302;2024-01-06T03:24:10;101516.16;;;-8.21;80.07
83492;BME280;73661;56.120;12.302;2024-01-06T03:26:36;101532.94;;;-8.13;79.12
83492;BME280;73661;56.120;12.302;2024-01-06T03:29:02;101536.56;;;-8.19;79.80
83492;BME280;73661;56.120;12.302;2024-01-06T03:31:29;101538.84;;;-8.04;79.34
83492;BME280;73661;56.120;12.302;2024-01-06T03:33:55;101541.03;;;-7.89;79.31
83492;BME280;73661;56.120;12.302;2024-01-06T03:36:21;101545.06;;;-7.91;77.85
83492;BME280;73661;56.120;12.302;2024-01-06T03:38:47;101549.25;;;-7.92;78.62
83492;BME280;73661;56.120;12.302;2024-01-06T03:41:13;101553.50;;;-7.74;78.06
83492;BME280;73661;56.120;12.302;2024-01-06T03:43:38;101547.97;;;-7.78;78.27
83492;BME280;73661;56.120;12.302;2024-01-06T03:46:05;101550.53;;;-7.78;77.64
83492;BME280;73661;56.120;12.302;2024-01-06T03:48:31;101554.31;;;-7.92;77.32
83492;BME280;73661;56.120;12.302;2024-01-06T03:50:59;101560.72;;;-7.87;77.48
83492;BME280;73661;56.120;12.302;2024-01-06T03:53:25;101555.88;;;-8.11;78.86
83492;BME280;73661;56.120;12.302;2024-01-06T03:55:50;101566.41;;;-7.98;78.02
83492;BME280;73661;56.120;12.302;2024-01-06T03:58:17;101562.88;;;-8.54;79.04
83492;BME280;73661;56.120;12.302;2024-01-06T04:00:43;101566.81;;;-8.30;78.94
83492;BME280;73661;56.120;12.302;2024-01-06T04:03:08;101559.91;;;-8.13;78.17
83492;BME280;73661;56.120;12.302;2024-01-06T04:05:34;101570.22;;;-8.29;78.44
83492;BME280;73661;56.120;12.302;2024-01-06T04:08:00;101571.66;;;-8.41;78.00
83492;BME280;73661;56.120;12.302;2024-01-06T04:10:26;101570.44;;;-8.36;77.89
83492;BME280;73661;56.120;12.302;2024-01-06T04:12:51;101566.81;;;-8.30;78.59
83492;BME280;73661;56.120;12.302;2024-01-06T04:15:17;101571.66;;;-8.41;78.67
83492;BME280;73661;56.120;12.302;2024-01-06T04:17:44;101577.03;;;-8.47;77.45
83492;BME280;73661;56.120;12.302;2024-01-06T04:20:10;101583.00;;;-8.72;78.01
83492;BME280;73661;56.120;12.302;2024-01-06T04:22:39;101574.25;;;-8.31;77.22
83492;BME280;73661;56.120;12.302;2024-01-06T04:25:05;101574.50;;;-8.64;77.97
83492;BME280;73661;56.120;12.302;2024-01-06T04:27:31;101566.59;;;-8.59;77.34
83492;BME280;73661;56.120;12.302;2024-01-06T04:29:59;101571.41;;;-8.62;77.46
83492;BME280;73661;56.120;12.302;2024-01-06T04:32:25;101580.63;;;-8.71;77.42
83492;BME280;73661;56.120;12.302;2024-01-06T04:34:50;101566.63;;;-8.76;78.10
83492;BME280;73661;56.120;12.302;2024-01-06T04:37:16;101564.41;;;-8.82;77.85
83492;BME280;73661;56.120;12.302;2024-01-06T04:39:42;101582.22;;;-8.63;77.98
83492;BME280;73661;56.120;12.302;2024-01-06T04:42:07;101581.19;;;-8.56;78.11
83492;BME280;73661;56.120;12.302;2024-01-06T04:44:33;101581.66;;;-8.60;77.10
83492;BME280;73661;56.120;12.302;2024-01-06T04:46:59;101582.38;;;-8.53;78.09
83492;BME280;73661;56.120;12.302;2024-01-06T04:49:25;101585.19;;;-8.49;77.36
83492;BME280;73661;56.120;12.302;2024-01-06T04:51:51;101590.47;;;-8.29;77.57
83492;BME280;73661;56.120;12.302;2024-01-06T04:54:17;101585.88;;;-8.33;77.75
83492;BME280;73661;56.120;12.302;2024-01-06T04:56:42;101596.66;;;-8.44;77.53
83492;BME280;73661;56.120;12.302;2024-01-06T04:59:08;101597.09;;;-8.40;76.85
83492;BME280;73661;56.120;12.302;2024-01-06T05:01:34;101599.28;;;-8.26;76.31
83492;BME280;73661;56.120;12.302;2024-01-06T05:03:59;101602.09;;;-8.31;75.94
83492;BME280;73661;56.120;12.302;2024-01-06T05:06:25;101607.91;;;-8.24;76.88
83492;BME280;73661;56.120;12.302;2024-01-06T05:08:51;101608.47;;;-8.17;76.46
83492;BME280;73661;56.120;12.302;2024-01-06T05:11:17;101605.91;;;-8.45;76.22
83492;BME280;73661;56.120;12.302;2024-01-06T05:13:43;101617.78;;;-8.44;76.39
83492;BME280;73661;56.120;12.302;2024-01-06T05:16:08;101610.59;;;-8.22;75.35
83492;BME280;73661;56.120;12.302;2024-01-06T05:18:35;101616.56;;;-8.30;75.41
83492;BME280;73661;56.120;12.302;2024-01-06T05:21:01;101618.66;;;-8.35;75.16
83492;BME280;73661;56.120;12.302;2024-01-06T05:23:27;101627.91;;;-8.44;75.62
83492;BME280;73661;56.120;12.302;2024-01-06T05:25:53;101627.06;;;-8.53;76.03
83492;BME280;73661;56.120;12.302;2024-01-06T05:28:19;101624.53;;;-8.62;76.22
83492;BME280;73661;56.120;12.302;2024-01-06T05:30:44;101636.09;;;-8.38;75.56
83492;BME280;73661;56.120;12.302;2024-01-06T05:33:11;101644.03;;;-8.61;75.48
83492;BME280;73661;56.120;12.302;2024-01-06T05:35:39;101641.34;;;-8.88;75.74
83492;BME280;73661;56.120;12.302;2024-01-06T05:38:04;101646.69;;;-8.94;76.01
83492;BME280;73661;56.120;12.302;2024-01-06T05:40:30;101643.56;;;-8.83;75.76
83492;BME280;73661;56.120;12.302;2024-01-06T05:42:56;101644.16;;;-9.02;76.35
83492;BME280;73661;56.120;12.302;2024-01-06T05:45:22;101643.25;;;-8.77;76.28
83492;BME280;73661;56.120;12.302;2024-01-06T05:47:48;101647.91;;;-8.73;75.28
83492;BME280;73661;56.120;12.302;2024-01-06T05:50:17;101661.56;;;-8.71;75.91
83492;BME280;73661;56.120;12.302;2024-01-06T05:52:43;101660.84;;;-8.87;76.07
83492;BME280;73661;56.120;12.302;2024-01-06T05:55:09;101669.63;;;-8.66;75.47
83492;BME280;73661;56.120;12.302;2024-01-06T05:57:35;101677.66;;;-8.79;76.49
83492;BME280;73661;56.120;12.302;2024-01-06T06:00:01;101688.22;;;-8.66;75.97
83492;BME280;73661;56.120;12.302;2024-01-06T06:02:27;101685.97;;;-8.63;75.89
83492;BME280;73661;56.120;12.302;2024-01-06T06:04:52;101708.44;;;-8.83;77.22
83492;BME280;73661;56.120;12.302;2024-01-06T06:07:19;101695.25;;;-8.55;76.57
83492;BME280;73661;56.120;12.302;2024-01-06T06:09:44;101701.16;;;-8.80;76.79
83492;BME280;73661;56.120;12.302;2024-01-06T06:12:13;101712.22;;;-9.21;77.61
83492;BME280;73661;56.120;12.302;2024-01-06T06:14:39;101703.13;;;-8.69;77.54
83492;BME280;73661;56.120;12.302;2024-01-06T06:17:05;101712.78;;;-8.82;76.87
83492;BME280;73661;56.120;12.302;2024-01-06T06:19:31;101715.19;;;-8.49;76.10
83492;BME280;73661;56.120;12.302;2024-01-06T06:21:57;101731.78;;;-8.94;77.01
83492;BME280;73661;56.120;12.302;2024-01-06T06:24:23;101731.59;;;-9.04;78.16
83492;BME280;73661;56.120;12.302;2024-01-06T06:26:49;101731.53;;;-8.80;77.39
83492;BME280;73661;56.120;12.302;2024-01-06T06:29:15;101732.31;;;-8.46;77.38
83492;BME280;73661;56.120;12.302;2024-01-06T06:31:41;101748.34;;;-8.63;78.01
83492;BME280;73661;56.120;12.302;2024-01-06T06:34:08;101754.34;;;-9.04;79.26
83492;BME280;73661;56.120;12.302;2024-01-06T06:36:35;101748.19;;;-8.82;78.82
83492;BME280;73661;56.120;12.302;2024-01-06T06:39:02;101758.78;;;-8.69;80.12
83492;BME280;73661;56.120;12.302;2024-01-06T06:41:30;101764.28;;;-8.73;79.16
83492;BME280;73661;56.120;12.302;2024-01-06T06:43:57;101770.38;;;-8.71;79.38
83492;BME280;73661;56.120;12.302;2024-01-06T06:46:23;101772.63;;;-8.65;79.25
83492;BME280;73661;56.120;12.302;2024-01-06T06:48:49;101764.19;;;-8.40;77.47
83492;BME280;73661;56.120;12.302;2024-01-06T06:51:16;101779.19;;;-8.67;79.37
83492;BME280;73661;56.120;12.302;2024-01-06T06:53:41;101779.78;;;-8.53;77.89
83492;BME280;73661;56.120;12.302;2024-01-06T06:56:07;101777.31;;;-8.35;77.53
83492;BME280;73661;56.120;12.302;2024-01-06T06:58:33;101788.56;;;-8.58;78.15
83492;BME280;73661;56.120;12.302;2024-01-06T07:00:59;101785.16;;;-8.32;78.34
83492;BME280;73661;56.120;12.302;2024-01-06T07:03:24;101795.88;;;-8.61;78.31
83492;BME280;73661;56.120;12.302;2024-01-06T07:05:52;101797.78;;;-8.75;78.84
83492;BME280;73661;56.120;12.302;2024-01-06T07:08:18;101788.75;;;-8.13;76.44
83492;BME280;73661;56.120;12.302;2024-01-06T07:10:43;101794.38;;;-8.24;75.54
83492;BME280;73661;56.120;12.302;2024-01-06T07:13:09;101807.13;;;-8.74;77.05
83492;BME280;73661;56.120;12.302;2024-01-06T07:15:35;101815.16;;;-8.79;77.50
83492;BME280;73661;56.120;12.302;2024-01-06T07:18:00;101810.78;;;-8.46;76.51
83492;BME280;73661;56.120;12.302;2024-01-06T07:20:26;101820.88;;;-8.97;75.17
83492;BME280;73661;56.120;12.302;2024-01-06T07:22:52;101810.13;;;-9.36;75.26
83492;BME280;73661;56.120;12.302;2024-01-06T07:25:17;101814.97;;;-9.71;75.76
83492;BME280;73661;56.120;12.302;2024-01-06T07:27:43;101822.75;;;-9.85;76.05
83492;BME280;73661;56.120;12.302;2024-01-06T07:30:09;101825.41;;;-9.68;75.09
83492;BME280;73661;56.120;12.302;2024-01-06T07:32:35;101831.56;;;-9.81;74.04
83492;BME280;73661;56.120;12.302;2024-01-06T07:35:01;101827.44;;;-9.72;74.90
83492;BME280;73661;56.120;12.302;2024-01-06T07:37:27;101825.50;;;-9.50;74.66
83492;BME280;73661;56.120;12.302;2024-01-06T07:39:53;101827.78;;;-9.45;74.38
83492;BME280;73661;56.120;12.302;2024-01-06T07:42:19;101834.94;;;-9.41;74.25
83492;BME280;73661;56.120;12.302;2024-01-06T07:44:44;101832.78;;;-9.29;74.73
83492;BME280;73661;56.120;12.302;2024-01-06T07:47:10;101846.09;;;-9.39;76.45
83492;BME280;73661;56.120;12.302;2024-01-06T07:49:36;101846.28;;;-9.04;75.53
83492;BME280;73661;56.120;12.302;2024-01-06T07:52:02;101844.47;;;-9.14;75.03
83492;BME280;73661;56.120;12.302;2024-01-06T07:54:28;101842.41;;;-9.09;75.87
83492;BME280;73661;56.120;12.302;2024-01-06T07:56:54;101851.53;;;-9.27;76.72
83492;BME280;73661;56.120;12.302;2024-01-06T07:59:20;101854.59;;;-9.38;76.44
83492;BME280;73661;56.120;12.302;2024-01-06T08:01:46;101853.44;;;-9.09;77.26
83492;BME280;73661;56.120;12.302;2024-01-06T08:04:12;101862.44;;;-8.86;77.47
83492;BME280;73661;56.120;12.302;2024-01-06T08:06:38;101864.34;;;-8.59;77.83
83492;BME280;73661;56.120;12.302;2024-01-06T08:09:03;101872.56;;;-8.86;79.09
83492;BME280;73661;56.120;12.302;2024-01-06T08:11:29;101863.75;;;-8.57;79.02
83492;BME280;73661;56.120;12.302;2024-01-06T08:13:55;101867.63;;;-8.52;78.70
83492;BME280;73661;56.120;12.302;2024-01-06T08:16:21;101868.19;;;-8.63;80.25
83492;BME280;73661;56.120;12.302;2024-01-06T08:18:47;101868.72;;;-8.24;79.12
83492;BME280;73661;56.120;12.302;2024-01-06T08:21:12;101883.16;;;-8.40;77.42
83492;BME280;73661;56.120;12.302;2024-01-06T08:23:38;101884.97;;;-8.72;79.29
83492;BME280;73661;56.120;12.302;2024-01-06T08:26:05;101885.59;;;-8.66;78.81
83492;BME280;73661;56.120;12.302;2024-01-06T08:28:31;101894.16;;;-8.48;78.66
83492;BME280;73661;56.120;12.302;2024-01-06T08:30:57;101891.09;;;-8.70;80.18
83492;BME280;73661;56.120;12.302;2024-01-06T08:33:22;101898.09;;;-9.00;80.49
83492;BME280;73661;56.120;12.302;2024-01-06T08:35:48;101903.03;;;-8.60;79.90
83492;BME280;73661;56.120;12.302;2024-01-06T08:38:14;101895.59;;;-8.59;78.28
83492;BME280;73661;56.120;12.302;2024-01-06T08:40:40;101890.28;;;-8.86;78.75
83492;BME280;73661;56.120;12.302;2024-01-06T08:43:06;101892.78;;;-8.95;79.05
83492;BME280;73661;56.120;12.302;2024-01-06T08:45:31;101907.34;;;-8.92;78.25
83492;BME280;73661;56.120;12.302;2024-01-06T08:47:57;101912.56;;;-8.58;78.13
83492;BME280;73661;56.120;12.302;2024-01-06T08:50:23;101913.78;;;-8.87;78.60
83492;BME280;73661;56.120;12.302;2024-01-06T08:52:49;101923.28;;;-8.93;79.05
83492;BME280;73661;56.120;12.302;2024-01-06T08:55:14;101917.09;;;-8.29;77.86
83492;BME280;73661;56.120;12.302;2024-01-06T08:57:42;101923.66;;;-8.48;78.25
83492;BME280;73661;56.120;12.302;2024-01-06T09:00:08;101917.28;;;-8.69;78.84
83492;BME280;73661;56.120;12.302;2024-01-06T09:02:34;101927.69;;;-8.25;78.41
83492;BME280;73661;56.120;12.302;2024-01-06T09:05:00;101931.00;;;-8.92;77.76
83492;BME280;73661;56.120;12.302;2024-01-06T09:07:26;101933.13;;;-8.88;77.68
83492;BME280;73661;56.120;12.302;2024-01-06T09:09:51;101945.88;;;-9.19;78.41
83492;BME280;73661;56.120;12.302;2024-01-06T09:12:17;101945.41;;;-8.99;77.71
83492;BME280;73661;56.120;12.302;2024-01-06T09:14:43;101962.91;;;-8.85;78.24
83492;BME280;73661;56.120;12.302;2024-01-06T09:17:08;101965.19;;;-8.71;77.11
83492;BME280;73661;56.120;12.302;2024-01-06T09:19:34;101973.00;;;-8.61;76.18
83492;BME280;73661;56.120;12.302;2024-01-06T09:22:00;101975.31;;;-8.46;75.26
83492;BME280;73661;56.120;12.302;2024-01-06T09:24:26;101973.16;;;-8.84;74.65
83492;BME280;73661;56.120;12.302;2024-01-06T09:26:51;101979.59;;;-9.59;76.84
83492;BME280;73661;56.120;12.302;2024-01-06T09:29:17;101989.59;;;-9.36;77.20
83492;BME280;73661;56.120;12.302;2024-01-06T09:31:43;101992.28;;;-9.19;76.45
83492;BME280;73661;56.120;12.302;2024-01-06T09:34:10;102001.25;;;-9.45;77.19
83492;BME280;73661;56.120;12.302;2024-01-06T09:36:36;102002.63;;;-9.09;77.00
83492;BME280;73661;56.120;12.302;2024-01-06T09:39:02;102002.88;;;-9.30;76.49
83492;BME280;73661;56.120;12.302;2024-01-06T09:41:28;102012.66;;;-9.01;76.16
83492;BME280;73661;56.120;12.302;2024-01-06T09:43:54;102008.72;;;-9.07;77.22
83492;BME280;73661;56.120;12.302;2024-01-06T09:46:27;102010.47;;;-8.90;76.56
83492;BME280;73661;56.120;12.302;2024-01-06T09:48:55;102001.63;;;-9.18;77.52
83492;BME280;73661;56.120;12.302;2024-01-06T09:51:23;102010.41;;;-8.49;77.28
83492;BME280;73661;56.120;12.302;2024-01-06T09:53:58;102010.00;;;-8.70;77.83
83492;BME280;73661;56.120;12.302;2024-01-06T09:56:28;102016.13;;;-8.43;77.70
83492;BME280;73661;56.120;12.302;2024-01-06T09:58:55;102010.59;;;-8.48;78.99
83492;BME280;73661;56.120;12.302;2024-01-06T10:01:21;102015.59;;;-7.82;78.26
83492;BME280;73661;56.120;12.302;2024-01-06T10:03:47;102020.00;;;-7.97;77.14
83492;BME280;73661;56.120;12.302;2024-01-06T10:06:14;102010.56;;;-7.56;76.63
83492;BME280;73661;56.120;12.302;2024-01-06T10:08:46;102021.91;;;-7.52;75.94
83492;BME280;73661;56.120;12.302;2024-01-06T10:11:13;102015.34;;;-7.50;75.21
83492;BME280;73661;56.120;12.302;2024-01-06T10:13:39;102017.31;;;-7.48;75.32
83492;BME280;73661;56.120;12.302;2024-01-06T10:16:08;102027.03;;;-7.26;73.86
83492;BME280;73661;56.120;12.302;2024-01-06T10:18:34;102030.28;;;-7.45;73.76
83492;BME280;73661;56.120;12.302;2024-01-06T10:21:05;102036.09;;;-7.96;75.85
83492;BME280;73661;56.120;12.302;2024-01-06T10:23:32;102034.78;;;-7.42;75.01
83492;BME280;73661;56.120;12.302;2024-01-06T10:25:58;102029.75;;;-8.17;75.91
83492;BME280;73661;56.120;12.302;2024-01-06T10:28:25;102038.63;;;-8.38;77.37
83492;BME280;73661;56.120;12.302;2024-01-06T10:30:54;102037.81;;;-8.21;76.83
83492;BME280;73661;56.120;12.302;2024-01-06T10:33:21;102042.69;;;-7.89;75.39
83492;BME280;73661;56.120;12.302;2024-01-06T10:35:49;102036.53;;;-7.58;75.43
83492;BME280;73661;56.120;12.302;2024-01-06T10:38:15;102036.81;;;-8.06;75.64
83492;BME280;73661;56.120;12.302;2024-01-06T10:41:01;102043.50;;;-7.73;74.91
83492;BME280;73661;56.120;12.302;2024-01-06T10:43:34;102046.22;;;-8.05;75.74
83492;BME280;73661;56.120;12.302;2024-01-06T10:46:07;102045.19;;;-7.98;75.31
83492;BME280;73661;56.120;12.302;2024-01-06T10:48:38;102053.22;;;-7.60;73.97
83492;BME280;73661;56.120;12.302;2024-01-06T10:51:09;102046.75;;;-7.15;73.81
83492;BME280;73661;56.120;12.302;2024-01-06T10:53:35;102047.88;;;-7.37;74.11
83492;BME280;73661;56.120;12.302;2024-01-06T10:56:03;102047.19;;;-7.87;73.15
83492;BME280;73661;56.120;12.302;2024-01-06T10:58:30;102044.47;;;-7.29;73.13
83492;BME280;73661;56.120;12.302;2024-01-06T11:00:58;102043.41;;;-7.31;72.24
83492;BME280;73661;56.120;12.302;2024-01-06T11:03:29;102043.84;;;-7.61;72.72
83492;BME280;73661;56.120;12.302;2024-01-06T11:05:55;102046.31;;;-7.79;74.52
83492;BME280;73661;56.120;12.302;2024-01-06T11:08:25;102045.66;;;-7.93;74.51
83492;BME280;73661;56.120;12.302;2024-01-06T11:10:52;102042.88;;;-7.79;74.71
83492;BME280;73661;56.120;12.302;2024-01-06T11:13:22;102042.97;;;-8.37;75.84
83492;BME280;73661;56.120;12.302;2024-01-06T11:15:50;102037.56;;;-8.07;74.90
83492;BME280;73661;56.120;12.302;2024-01-06T11:18:36;102037.53;;;-8.15;75.00
83492;BME280;73661;56.120;12.302;2024-01-06T11:21:24;102038.19;;;-8.34;75.51
83492;BME280;73661;56.120;12.302;2024-01-06T11:26:56;102032.53;;;-7.89;75.16
83492;BME280;73661;56.120;12.302;2024-01-06T11:29:22;102040.63;;;-7.85;73.96
83492;BME280;73661;56.120;12.302;2024-01-06T11:34:52;102038.22;;;-7.83;73.55
83492;BME280;73661;56.120;12.302;2024-01-06T11:40:08;102043.28;;;-7.92;75.36
83492;BME280;73661;56.120;12.302;2024-01-06T11:42:35;102046.59;;;-7.84;75.08
83492;BME280;73661;56.120;12.302;2024-01-06T11:45:07;102040.22;;;-7.63;74.77
83492;BME280;73661;56.120;12.302;2024-01-06T11:47:36;102045.97;;;-7.40;74.47
83492;BME280;73661;56.120;12.302;2024-01-06T11:50:03;102042.47;;;-7.58;74.63
83492;BME280;73661;56.120;12.302;2024-01-06T11:52:33;102053.28;;;-7.34;74.58
83492;BME280;73661;56.120;12.302;2024-01-06T11:55:00;102056.19;;;-7.56;74.39
83492;BME280;73661;56.120;12.302;2024-01-06T11:57:29;102057.13;;;-7.47;74.83
83492;BME280;73661;56.120;12.302;2024-01-06T11:59:55;102051.34;;;-7.11;73.68
83492;BME280;73661;56.120;12.302;2024-01-06T12:02:21;102048.66;;;-7.21;74.43
83492;BME280;73661;56.120;12.302;2024-01-06T12:04:51;102045.66;;;-6.82;74.44
83492;BME280;73661;56.120;12.302;2024-01-06T12:07:19;102051.91;;;-7.22;74.28
83492;BME280;73661;56.120;12.302;2024-01-06T12:09:46;102052.41;;;-7.00;74.02
83492;BME280;73661;56.120;12.302;2024-01-06T12:12:16;102054.03;;;-7.35;74.20
83492;BME280;73661;56.120;12.302;2024-01-06T12:14:42;102054.19;;;-7.08;73.99
83492;BME280;73661;56.120;12.302;2024-01-06T12:17:09;102049.09;;;-6.65;72.96
83492;BME280;73661;56.120;12.302;2024-01-06T12:19:35;102056.88;;;-6.98;73.66
83492;BME280;73661;56.120;12.302;2024-01-06T12:22:02;102047.63;;;-6.89;73.42
83492;BME280;73661;56.120;12.302;2024-01-06T12:24:28;102054.63;;;-6.77;73.66
83492;BME280;73661;56.120;12.302;2024-01-06T12:26:58;102058.03;;;-6.51;72.27
83492;BME280;73661;56.120;12.302;2024-01-06T12:29:28;102053.28;;;-7.17;73.17
83492;BME280;73661;56.120;12.302;2024-01-06T12:31:59;102055.97;;;-6.72;73.43
83492;BME280;73661;56.120;12.302;2024-01-06T12:34:25;102061.03;;;-6.72;72.72
83492;BME280;73661;56.120;12.302;2024-01-06T12:36:53;102060.75;;;-7.19;73.01
83492;BME280;73661;56.120;12.302;2024-01-06T12:39:21;102058.34;;;-7.17;73.47
83492;BME280;73661;56.120;12.302;2024-01-06T12:41:50;102065.53;;;-6.87;73.48
83492;BME280;73661;56.120;12.302;2024-01-06T12:44:17;102059.88;;;-6.93;73.01
83492;BME280;73661;56.120;12.302;2024-01-06T12:46:42;102068.06;;;-7.13;73.66